SWR542D LSZH-EGLL
Flight info
| Callsign | SWR542D |
|---|---|
| Flight time | 1h 25m |
| Altitude | 36000 |
| Route | VEBIT4W VEBIT T10 TORPA DCT REKLA DCT RLP DCT ROTSI DCT KOTUN DCT NINAL DCT ABNUR DCT DIMAL DCT ALESO ALESO1H |
| Aircraft | A321/M-SDE3FGHIRWY/LB1 |
Departure
| Time | 2026-05-07 08:35 |
|---|---|
| Airport | Zürich Airport (LSZH) |
Arrival
| Time | 2026-05-07 10:00 |
|---|---|
| Airport | London Heathrow Airport (EGLL) |
| Time | Latitude | Longitude | Altitude | Speed | Heading |
|---|---|---|---|---|---|
| 2026-05-07 08:12 | 47.46047 | 8.55470 | 1399 ft | 0 kts | 6° |
| 2026-05-07 08:29 | 47.46032 | 8.55468 | 1407 ft | 4 kts | 6° |
| 2026-05-07 08:29 | 47.46006 | 8.55463 | 1408 ft | 4 kts | 7° |
| 2026-05-07 08:30 | 47.45983 | 8.55459 | 1403 ft | 4 kts | 27° |
| 2026-05-07 08:30 | 47.45971 | 8.55434 | 1399 ft | 4 kts | 88° |
| 2026-05-07 08:30 | 47.45972 | 8.55396 | 1404 ft | 2 kts | 96° |
| 2026-05-07 08:30 | 47.45973 | 8.55392 | 1398 ft | 0 kts | 96° |
| 2026-05-07 08:31 | 47.45973 | 8.55394 | 1398 ft | 1 kts | 96° |
| 2026-05-07 08:32 | 47.45970 | 8.55426 | 1406 ft | 6 kts | 96° |
| 2026-05-07 08:32 | 47.45964 | 8.55510 | 1400 ft | 11 kts | 96° |
| 2026-05-07 08:32 | 47.45953 | 8.55653 | 1402 ft | 17 kts | 95° |
| 2026-05-07 08:32 | 47.45939 | 8.55856 | 1405 ft | 23 kts | 96° |
| 2026-05-07 08:33 | 47.45920 | 8.56110 | 1413 ft | 25 kts | 95° |
| 2026-05-07 08:33 | 47.45907 | 8.56350 | 1414 ft | 22 kts | 98° |
| 2026-05-07 08:33 | 47.45835 | 8.56507 | 1419 ft | 17 kts | 133° |
| 2026-05-07 08:33 | 47.45794 | 8.56657 | 1423 ft | 15 kts | 100° |
| 2026-05-07 08:34 | 47.45784 | 8.56797 | 1421 ft | 13 kts | 95° |
| 2026-05-07 08:34 | 47.45776 | 8.56934 | 1424 ft | 17 kts | 97° |
| 2026-05-07 08:34 | 47.45698 | 8.57027 | 1425 ft | 16 kts | 196° |
| 2026-05-07 08:34 | 47.45669 | 8.56949 | 1424 ft | 0 kts | 271° |
| 2026-05-07 08:35 | 47.45669 | 8.56948 | 1424 ft | 6 kts | 271° |
| 2026-05-07 08:35 | 47.45707 | 8.56323 | 1419 ft | 110 kts | 276° |
| 2026-05-07 08:35 | 47.45810 | 8.54812 | 1546 ft | 174 kts | 272° |
| 2026-05-07 08:35 | 47.45859 | 8.52842 | 2063 ft | 209 kts | 269° |
| 2026-05-07 08:36 | 47.45895 | 8.50627 | 2990 ft | 220 kts | 274° |
| 2026-05-07 08:36 | 47.45977 | 8.48242 | 3292 ft | 247 kts | 265° |
| 2026-05-07 08:36 | 47.45356 | 8.45855 | 4023 ft | 256 kts | 237° |
| 2026-05-07 08:36 | 47.44249 | 8.43762 | 4733 ft | 259 kts | 231° |
| 2026-05-07 08:37 | 47.43060 | 8.41769 | 4958 ft | 259 kts | 230° |
| 2026-05-07 08:37 | 47.41859 | 8.39756 | 5787 ft | 261 kts | 231° |
| 2026-05-07 08:37 | 47.40692 | 8.37718 | 6819 ft | 261 kts | 232° |
| 2026-05-07 08:37 | 47.39545 | 8.35621 | 7658 ft | 263 kts | 233° |
| 2026-05-07 08:38 | 47.38516 | 8.33418 | 8528 ft | 265 kts | 245° |
| 2026-05-07 08:38 | 47.37715 | 8.30956 | 9392 ft | 269 kts | 244° |
| 2026-05-07 08:38 | 47.36851 | 8.28492 | 10178 ft | 273 kts | 242° |
| 2026-05-07 08:38 | 47.35930 | 8.25952 | 10609 ft | 291 kts | 242° |
| 2026-05-07 08:39 | 47.34939 | 8.23223 | 10840 ft | 312 kts | 242° |
| 2026-05-07 08:39 | 47.33905 | 8.20357 | 11409 ft | 320 kts | 243° |
| 2026-05-07 08:39 | 47.32856 | 8.17428 | 12125 ft | 325 kts | 243° |
| 2026-05-07 08:39 | 47.31796 | 8.14460 | 12832 ft | 329 kts | 243° |
| 2026-05-07 08:40 | 47.30726 | 8.11456 | 13571 ft | 333 kts | 243° |
| 2026-05-07 08:40 | 47.29639 | 8.08405 | 14213 ft | 338 kts | 243° |
| 2026-05-07 08:40 | 47.28542 | 8.05319 | 14851 ft | 342 kts | 244° |
| 2026-05-07 08:40 | 47.27659 | 8.02063 | 15467 ft | 345 kts | 255° |
| 2026-05-07 08:41 | 47.27267 | 7.98566 | 16103 ft | 348 kts | 267° |
| 2026-05-07 08:41 | 47.27391 | 7.95006 | 16737 ft | 351 kts | 278° |
| 2026-05-07 08:41 | 47.27746 | 7.91432 | 17403 ft | 354 kts | 278° |
| 2026-05-07 08:41 | 47.28097 | 7.87827 | 18059 ft | 358 kts | 278° |
| 2026-05-07 08:42 | 47.28448 | 7.84181 | 18638 ft | 361 kts | 278° |
| 2026-05-07 08:42 | 47.28798 | 7.80508 | 19168 ft | 364 kts | 278° |
| 2026-05-07 08:42 | 47.29148 | 7.76795 | 19697 ft | 367 kts | 278° |
| 2026-05-07 08:42 | 47.29498 | 7.73062 | 20239 ft | 369 kts | 278° |
| 2026-05-07 08:43 | 47.29844 | 7.69345 | 20732 ft | 372 kts | 278° |
| 2026-05-07 08:43 | 47.30198 | 7.65557 | 21228 ft | 375 kts | 278° |
| 2026-05-07 08:43 | 47.30699 | 7.61774 | 21703 ft | 377 kts | 286° |
| 2026-05-07 08:43 | 47.31502 | 7.58085 | 22163 ft | 380 kts | 288° |
| 2026-05-07 08:44 | 47.32319 | 7.54374 | 22626 ft | 382 kts | 288° |
| 2026-05-07 08:44 | 47.33138 | 7.50633 | 23099 ft | 385 kts | 288° |
| 2026-05-07 08:44 | 47.33959 | 7.46860 | 23565 ft | 388 kts | 288° |
| 2026-05-07 08:44 | 47.34784 | 7.43058 | 23928 ft | 391 kts | 288° |
| 2026-05-07 08:45 | 47.35613 | 7.39216 | 24328 ft | 394 kts | 288° |
| 2026-05-07 08:45 | 47.36444 | 7.35355 | 24710 ft | 396 kts | 288° |
| 2026-05-07 08:45 | 47.37280 | 7.31464 | 25089 ft | 399 kts | 288° |
| 2026-05-07 08:45 | 47.38124 | 7.27548 | 25489 ft | 401 kts | 288° |
| 2026-05-07 08:46 | 47.38971 | 7.23613 | 25875 ft | 404 kts | 288° |
| 2026-05-07 08:46 | 47.39822 | 7.19643 | 26252 ft | 408 kts | 288° |
| 2026-05-07 08:46 | 47.40666 | 7.15632 | 26643 ft | 410 kts | 286° |
| 2026-05-07 08:46 | 47.41305 | 7.11518 | 27046 ft | 413 kts | 283° |
| 2026-05-07 08:47 | 47.41915 | 7.07367 | 27418 ft | 415 kts | 283° |
| 2026-05-07 08:47 | 47.42527 | 7.03191 | 27797 ft | 417 kts | 283° |
| 2026-05-07 08:47 | 47.43142 | 6.98983 | 28121 ft | 420 kts | 283° |
| 2026-05-07 08:47 | 47.43761 | 6.94748 | 28486 ft | 423 kts | 283° |
| 2026-05-07 08:48 | 47.44383 | 6.90492 | 28853 ft | 426 kts | 283° |
| 2026-05-07 08:48 | 47.45009 | 6.86194 | 29207 ft | 429 kts | 283° |
| 2026-05-07 08:48 | 47.45627 | 6.81933 | 29556 ft | 431 kts | 284° |
| 2026-05-07 08:48 | 47.46257 | 6.77587 | 29890 ft | 434 kts | 283° |
| 2026-05-07 08:49 | 47.46887 | 6.73214 | 30226 ft | 436 kts | 283° |
| 2026-05-07 08:49 | 47.47518 | 6.68822 | 30492 ft | 438 kts | 283° |
| 2026-05-07 08:49 | 47.48057 | 6.64374 | 30764 ft | 440 kts | 276° |
| 2026-05-07 08:49 | 47.48381 | 6.59864 | 31025 ft | 442 kts | 276° |
| 2026-05-07 08:50 | 47.48704 | 6.55344 | 31294 ft | 442 kts | 276° |
| 2026-05-07 08:50 | 47.49030 | 6.50828 | 31680 ft | 441 kts | 276° |
| 2026-05-07 08:50 | 47.49352 | 6.46332 | 32065 ft | 439 kts | 276° |
| 2026-05-07 08:50 | 47.49671 | 6.41842 | 32456 ft | 438 kts | 276° |
| 2026-05-07 08:51 | 47.49988 | 6.37371 | 32851 ft | 436 kts | 276° |
| 2026-05-07 08:51 | 47.50197 | 6.34420 | 33111 ft | 435 kts | 276° |
| 2026-05-07 08:51 | 47.50609 | 6.28542 | 33623 ft | 433 kts | 276° |
| 2026-05-07 08:51 | 47.50916 | 6.24119 | 33996 ft | 431 kts | 276° |
| 2026-05-07 08:52 | 47.51218 | 6.19710 | 34305 ft | 430 kts | 276° |
| 2026-05-07 08:52 | 47.51519 | 6.15311 | 34575 ft | 430 kts | 276° |
| 2026-05-07 08:52 | 47.51723 | 6.12341 | 34746 ft | 430 kts | 276° |
| 2026-05-07 08:52 | 47.52122 | 6.06516 | 35070 ft | 430 kts | 276° |
| 2026-05-07 08:53 | 47.52321 | 6.03603 | 35237 ft | 430 kts | 275° |
| 2026-05-07 08:53 | 47.52620 | 5.99193 | 35481 ft | 430 kts | 275° |
| 2026-05-07 08:53 | 47.52917 | 5.94786 | 35725 ft | 430 kts | 275° |
| 2026-05-07 08:53 | 47.53331 | 5.90408 | 35949 ft | 430 kts | 282° |
| 2026-05-07 08:54 | 47.55603 | 5.82290 | 36056 ft | 427 kts | 302° |
| 2026-05-07 08:54 | 47.59453 | 5.75613 | 36038 ft | 427 kts | 311° |
| 2026-05-07 08:55 | 47.63514 | 5.69081 | 36056 ft | 437 kts | 311° |
| 2026-05-07 08:55 | 47.67667 | 5.62348 | 36053 ft | 447 kts | 311° |
| 2026-05-07 08:56 | 47.71881 | 5.55509 | 36047 ft | 449 kts | 311° |
| 2026-05-07 08:56 | 47.76103 | 5.48660 | 36051 ft | 450 kts | 311° |
| 2026-05-07 08:57 | 47.80326 | 5.41792 | 36055 ft | 449 kts | 311° |
| 2026-05-07 08:57 | 47.84509 | 5.34964 | 36055 ft | 449 kts | 311° |
| 2026-05-07 08:58 | 47.88720 | 5.28068 | 36063 ft | 450 kts | 311° |
| 2026-05-07 08:58 | 47.92926 | 5.21157 | 36062 ft | 450 kts | 311° |
| 2026-05-07 08:59 | 47.97132 | 5.14232 | 36061 ft | 450 kts | 311° |
| 2026-05-07 08:59 | 47.97862 | 5.13030 | 36071 ft | 450 kts | 311° |
| 2026-05-07 09:01 | 47.99256 | 5.10733 | 36074 ft | 450 kts | 311° |
| 2026-05-07 09:01 | 48.01704 | 5.06698 | 36074 ft | 450 kts | 311° |
| 2026-05-07 09:04 | 48.04950 | 5.01332 | 36079 ft | 450 kts | 311° |
| 2026-05-07 09:05 | 48.09118 | 4.94422 | 36075 ft | 450 kts | 311° |
| 2026-05-07 09:05 | 48.12546 | 4.88721 | 36086 ft | 450 kts | 311° |
| 2026-05-07 09:06 | 48.14507 | 4.85458 | 36074 ft | 450 kts | 311° |
| 2026-05-07 09:07 | 48.16584 | 4.81994 | 36074 ft | 450 kts | 311° |
| 2026-05-07 09:08 | 48.19438 | 4.77234 | 36065 ft | 450 kts | 311° |
| 2026-05-07 09:08 | 48.23620 | 4.70225 | 36065 ft | 450 kts | 311° |
| 2026-05-07 09:09 | 48.27792 | 4.63221 | 36078 ft | 450 kts | 311° |
| 2026-05-07 09:09 | 48.31963 | 4.56218 | 36079 ft | 449 kts | 311° |
| 2026-05-07 09:10 | 48.36122 | 4.49203 | 36073 ft | 449 kts | 311° |
| 2026-05-07 09:10 | 48.40276 | 4.42179 | 36074 ft | 449 kts | 311° |
| 2026-05-07 09:11 | 48.44430 | 4.35139 | 36072 ft | 449 kts | 311° |
| 2026-05-07 09:11 | 48.48550 | 4.28137 | 36075 ft | 449 kts | 311° |
| 2026-05-07 09:12 | 48.52696 | 4.21075 | 36074 ft | 449 kts | 310° |
| 2026-05-07 09:12 | 48.56830 | 4.13999 | 36082 ft | 449 kts | 310° |
| 2026-05-07 09:13 | 48.60962 | 4.06903 | 36080 ft | 450 kts | 310° |
| 2026-05-07 09:13 | 48.65089 | 3.99806 | 36072 ft | 450 kts | 310° |
| 2026-05-07 09:14 | 48.69230 | 3.92677 | 36071 ft | 450 kts | 310° |
| 2026-05-07 09:14 | 48.73369 | 3.85584 | 36070 ft | 450 kts | 312° |
| 2026-05-07 09:15 | 48.77781 | 3.78834 | 36073 ft | 451 kts | 315° |
| 2026-05-07 09:15 | 48.82341 | 3.72303 | 36076 ft | 451 kts | 316° |
| 2026-05-07 09:16 | 48.86841 | 3.65764 | 36073 ft | 451 kts | 315° |
| 2026-05-07 09:16 | 48.91310 | 3.59077 | 36076 ft | 451 kts | 314° |
| 2026-05-07 09:17 | 48.95759 | 3.52343 | 36078 ft | 451 kts | 314° |
| 2026-05-07 09:17 | 49.00208 | 3.45617 | 36075 ft | 451 kts | 314° |
| 2026-05-07 09:18 | 49.04669 | 3.38890 | 36082 ft | 451 kts | 314° |
| 2026-05-07 09:18 | 49.09130 | 3.32158 | 36079 ft | 452 kts | 314° |
| 2026-05-07 09:19 | 49.13592 | 3.25399 | 36072 ft | 452 kts | 314° |
| 2026-05-07 09:19 | 49.18047 | 3.18624 | 36075 ft | 452 kts | 314° |
| 2026-05-07 09:20 | 49.22494 | 3.11828 | 36072 ft | 452 kts | 314° |
| 2026-05-07 09:20 | 49.26935 | 3.05026 | 36080 ft | 452 kts | 314° |
| 2026-05-07 09:21 | 49.31384 | 2.98218 | 36086 ft | 452 kts | 314° |
| 2026-05-07 09:21 | 49.35829 | 2.91384 | 36080 ft | 452 kts | 314° |
| 2026-05-07 09:22 | 49.40259 | 2.84544 | 36081 ft | 452 kts | 313° |
| 2026-05-07 09:22 | 49.44698 | 2.77681 | 36082 ft | 452 kts | 313° |
| 2026-05-07 09:23 | 49.49102 | 2.70868 | 36082 ft | 452 kts | 313° |
| 2026-05-07 09:23 | 49.53535 | 2.63994 | 36088 ft | 452 kts | 313° |
| 2026-05-07 09:24 | 49.57947 | 2.57093 | 36091 ft | 452 kts | 313° |
| 2026-05-07 09:24 | 49.62611 | 2.50598 | 36087 ft | 453 kts | 321° |
| 2026-05-07 09:25 | 49.67641 | 2.44707 | 36082 ft | 454 kts | 321° |
| 2026-05-07 09:25 | 49.72576 | 2.38925 | 36072 ft | 435 kts | 321° |
| 2026-05-07 09:26 | 49.77357 | 2.33294 | 36069 ft | 431 kts | 321° |
| 2026-05-07 09:26 | 49.82117 | 2.27673 | 36067 ft | 430 kts | 321° |
| 2026-05-07 09:27 | 49.86875 | 2.22053 | 36068 ft | 430 kts | 321° |
| 2026-05-07 09:28 | 49.93971 | 2.13627 | 36070 ft | 430 kts | 321° |
| 2026-05-07 09:28 | 49.98714 | 2.07966 | 36076 ft | 430 kts | 321° |
| 2026-05-07 09:29 | 50.03459 | 2.02294 | 36074 ft | 430 kts | 321° |
| 2026-05-07 09:29 | 50.08204 | 1.96608 | 36073 ft | 430 kts | 321° |
| 2026-05-07 09:30 | 50.12950 | 1.90916 | 36072 ft | 430 kts | 321° |
| 2026-05-07 09:30 | 50.17636 | 1.85116 | 36073 ft | 429 kts | 315° |
| 2026-05-07 09:31 | 50.21905 | 1.78609 | 36084 ft | 429 kts | 314° |
| 2026-05-07 09:31 | 50.26187 | 1.72094 | 36082 ft | 429 kts | 314° |
| 2026-05-07 09:32 | 50.30468 | 1.65562 | 36062 ft | 431 kts | 314° |
| 2026-05-07 09:32 | 50.34742 | 1.59022 | 36050 ft | 433 kts | 314° |
| 2026-05-07 09:33 | 50.39053 | 1.52409 | 36066 ft | 435 kts | 314° |
| 2026-05-07 09:33 | 50.43378 | 1.45748 | 36070 ft | 436 kts | 314° |
| 2026-05-07 09:34 | 50.47697 | 1.39057 | 36020 ft | 437 kts | 314° |
| 2026-05-07 09:34 | 50.49863 | 1.35679 | 35048 ft | 444 kts | 313° |
| 2026-05-07 09:34 | 50.52024 | 1.32170 | 33620 ft | 449 kts | 312° |
| 2026-05-07 09:34 | 50.54154 | 1.28563 | 32106 ft | 451 kts | 311° |
| 2026-05-07 09:35 | 50.56246 | 1.24941 | 31104 ft | 443 kts | 310° |
| 2026-05-07 09:35 | 50.58292 | 1.21392 | 30142 ft | 435 kts | 311° |
| 2026-05-07 09:35 | 50.60359 | 1.17956 | 29065 ft | 428 kts | 313° |
| 2026-05-07 09:35 | 50.62438 | 1.14651 | 28013 ft | 422 kts | 314° |
| 2026-05-07 09:36 | 50.64509 | 1.11436 | 26989 ft | 415 kts | 314° |
| 2026-05-07 09:36 | 50.66556 | 1.08278 | 25929 ft | 409 kts | 314° |
| 2026-05-07 09:36 | 50.68573 | 1.05151 | 25283 ft | 402 kts | 314° |
| 2026-05-07 09:36 | 50.70536 | 1.02077 | 24845 ft | 392 kts | 314° |
| 2026-05-07 09:37 | 50.72421 | 0.99101 | 24401 ft | 384 kts | 314° |
| 2026-05-07 09:37 | 50.74283 | 0.96143 | 23953 ft | 376 kts | 314° |
| 2026-05-07 09:37 | 50.76107 | 0.93233 | 23468 ft | 370 kts | 314° |
| 2026-05-07 09:37 | 50.77893 | 0.90378 | 23001 ft | 362 kts | 313° |
| 2026-05-07 09:38 | 50.79647 | 0.87570 | 22568 ft | 355 kts | 313° |
| 2026-05-07 09:38 | 50.81366 | 0.84811 | 22137 ft | 349 kts | 313° |
| 2026-05-07 09:38 | 50.83057 | 0.82095 | 21695 ft | 343 kts | 313° |
| 2026-05-07 09:38 | 50.84719 | 0.79428 | 21277 ft | 338 kts | 313° |
| 2026-05-07 09:39 | 50.86366 | 0.76783 | 20851 ft | 336 kts | 313° |
| 2026-05-07 09:39 | 50.87997 | 0.74165 | 20423 ft | 334 kts | 313° |
| 2026-05-07 09:39 | 50.89630 | 0.71552 | 19955 ft | 332 kts | 313° |
| 2026-05-07 09:39 | 50.91272 | 0.68922 | 19079 ft | 342 kts | 313° |
| 2026-05-07 09:40 | 50.92966 | 0.66195 | 18160 ft | 352 kts | 314° |
| 2026-05-07 09:40 | 50.94705 | 0.63388 | 17123 ft | 361 kts | 313° |
| 2026-05-07 09:40 | 50.96481 | 0.60519 | 16224 ft | 365 kts | 313° |
| 2026-05-07 09:40 | 50.98243 | 0.57673 | 15716 ft | 359 kts | 313° |
| 2026-05-07 09:41 | 50.99984 | 0.54863 | 15177 ft | 354 kts | 314° |
| 2026-05-07 09:41 | 51.01121 | 0.53027 | 14762 ft | 349 kts | 313° |
| 2026-05-07 09:41 | 51.02787 | 0.50330 | 14311 ft | 336 kts | 314° |
| 2026-05-07 09:41 | 51.04396 | 0.47724 | 13887 ft | 324 kts | 314° |
| 2026-05-07 09:42 | 51.05944 | 0.45210 | 13458 ft | 313 kts | 314° |
| 2026-05-07 09:42 | 51.07463 | 0.42752 | 13026 ft | 312 kts | 315° |
| 2026-05-07 09:42 | 51.09031 | 0.40319 | 12601 ft | 320 kts | 316° |
| 2026-05-07 09:42 | 51.10643 | 0.37878 | 12175 ft | 320 kts | 316° |
| 2026-05-07 09:43 | 51.12258 | 0.35451 | 11760 ft | 318 kts | 316° |
| 2026-05-07 09:43 | 51.13862 | 0.33035 | 11341 ft | 317 kts | 316° |
| 2026-05-07 09:43 | 51.15450 | 0.30624 | 10936 ft | 313 kts | 316° |
| 2026-05-07 09:43 | 51.16983 | 0.28286 | 10769 ft | 299 kts | 316° |
| 2026-05-07 09:44 | 51.18464 | 0.26020 | 10473 ft | 292 kts | 316° |
| 2026-05-07 09:44 | 51.19917 | 0.23785 | 10240 ft | 290 kts | 316° |
| 2026-05-07 09:44 | 51.21367 | 0.21554 | 9865 ft | 289 kts | 316° |
| 2026-05-07 09:44 | 51.22813 | 0.19333 | 9362 ft | 288 kts | 316° |
| 2026-05-07 09:45 | 51.24255 | 0.17117 | 8868 ft | 287 kts | 315° |
| 2026-05-07 09:45 | 51.25691 | 0.14907 | 8393 ft | 286 kts | 315° |
| 2026-05-07 09:45 | 51.27117 | 0.12707 | 7904 ft | 285 kts | 315° |
| 2026-05-07 09:45 | 51.28534 | 0.10519 | 7568 ft | 279 kts | 315° |
| 2026-05-07 09:46 | 51.29912 | 0.08361 | 7202 ft | 276 kts | 314° |
| 2026-05-07 09:46 | 51.31264 | 0.06245 | 7013 ft | 266 kts | 314° |
| 2026-05-07 09:46 | 51.32557 | 0.04229 | 7025 ft | 255 kts | 314° |
| 2026-05-07 09:46 | 51.33678 | 0.02068 | 7088 ft | 252 kts | 294° |
| 2026-05-07 09:47 | 51.34151 | -0.00599 | 7107 ft | 250 kts | 278° |
| 2026-05-07 09:47 | 51.34404 | -0.03338 | 7077 ft | 246 kts | 276° |
| 2026-05-07 09:47 | 51.34618 | -0.06051 | 7083 ft | 245 kts | 276° |
| 2026-05-07 09:47 | 51.34828 | -0.08762 | 7089 ft | 246 kts | 276° |
| 2026-05-07 09:48 | 51.35035 | -0.11468 | 7079 ft | 242 kts | 276° |
| 2026-05-07 09:48 | 51.35236 | -0.14096 | 7083 ft | 236 kts | 276° |
| 2026-05-07 09:48 | 51.35433 | -0.16664 | 7085 ft | 235 kts | 276° |
| 2026-05-07 09:48 | 51.35633 | -0.19289 | 7085 ft | 235 kts | 276° |
| 2026-05-07 09:49 | 51.35831 | -0.21893 | 7081 ft | 236 kts | 276° |
| 2026-05-07 09:49 | 51.36030 | -0.24486 | 7082 ft | 235 kts | 276° |
| 2026-05-07 09:49 | 51.36228 | -0.27078 | 7079 ft | 235 kts | 276° |
| 2026-05-07 09:49 | 51.36423 | -0.29646 | 7088 ft | 235 kts | 276° |
| 2026-05-07 09:50 | 51.36619 | -0.32237 | 7083 ft | 234 kts | 276° |
| 2026-05-07 09:50 | 51.36819 | -0.34861 | 7082 ft | 235 kts | 276° |
| 2026-05-07 09:50 | 51.37014 | -0.37456 | 7085 ft | 235 kts | 276° |
| 2026-05-07 09:50 | 51.37209 | -0.40014 | 7081 ft | 235 kts | 276° |
| 2026-05-07 09:51 | 51.37406 | -0.42610 | 7087 ft | 235 kts | 276° |
| 2026-05-07 09:51 | 51.37604 | -0.45209 | 6995 ft | 235 kts | 276° |
| 2026-05-07 09:51 | 51.37799 | -0.47788 | 6698 ft | 233 kts | 276° |
| 2026-05-07 09:51 | 51.37995 | -0.50360 | 6405 ft | 232 kts | 276° |
| 2026-05-07 09:52 | 51.38189 | -0.52909 | 6065 ft | 230 kts | 276° |
| 2026-05-07 09:52 | 51.38381 | -0.55453 | 5723 ft | 229 kts | 276° |
| 2026-05-07 09:52 | 51.38569 | -0.57975 | 5383 ft | 228 kts | 276° |
| 2026-05-07 09:52 | 51.38754 | -0.60492 | 4971 ft | 225 kts | 276° |
| 2026-05-07 09:53 | 51.38933 | -0.62970 | 4550 ft | 222 kts | 276° |
| 2026-05-07 09:53 | 51.39111 | -0.65416 | 4136 ft | 220 kts | 276° |
| 2026-05-07 09:53 | 51.39290 | -0.67826 | 3737 ft | 216 kts | 276° |
| 2026-05-07 09:53 | 51.39472 | -0.70166 | 3361 ft | 208 kts | 276° |
| 2026-05-07 09:54 | 51.39654 | -0.72423 | 3037 ft | 199 kts | 276° |
| 2026-05-07 09:54 | 51.39834 | -0.74534 | 2998 ft | 190 kts | 276° |
| 2026-05-07 09:54 | 51.40008 | -0.76602 | 3001 ft | 186 kts | 276° |
| 2026-05-07 09:54 | 51.40415 | -0.78543 | 2997 ft | 188 kts | 305° |
| 2026-05-07 09:55 | 51.41492 | -0.79712 | 2847 ft | 191 kts | 345° |
| 2026-05-07 09:55 | 51.42808 | -0.79888 | 2603 ft | 190 kts | 359° |
| 2026-05-07 09:55 | 51.44129 | -0.79788 | 2500 ft | 190 kts | 13° |
| 2026-05-07 09:55 | 51.45235 | -0.78689 | 2507 ft | 188 kts | 46° |
| 2026-05-07 09:56 | 51.46126 | -0.77153 | 2507 ft | 188 kts | 48° |
| 2026-05-07 09:56 | 51.47040 | -0.75657 | 2505 ft | 185 kts | 56° |
| 2026-05-07 09:56 | 51.47551 | -0.73881 | 2521 ft | 170 kts | 79° |
| 2026-05-07 09:56 | 51.47632 | -0.72025 | 2517 ft | 166 kts | 90° |
| 2026-05-07 09:57 | 51.47641 | -0.70187 | 2513 ft | 164 kts | 91° |
| 2026-05-07 09:57 | 51.47651 | -0.68356 | 2474 ft | 164 kts | 91° |
| 2026-05-07 09:57 | 51.47661 | -0.66531 | 2319 ft | 163 kts | 92° |
| 2026-05-07 09:57 | 51.47671 | -0.64712 | 2116 ft | 162 kts | 91° |
| 2026-05-07 09:58 | 51.47682 | -0.62908 | 1908 ft | 161 kts | 92° |
| 2026-05-07 09:58 | 51.47691 | -0.61108 | 1686 ft | 161 kts | 91° |
| 2026-05-07 09:58 | 51.47699 | -0.59314 | 1459 ft | 157 kts | 91° |
| 2026-05-07 09:58 | 51.47709 | -0.57634 | 1231 ft | 146 kts | 92° |
| 2026-05-07 09:59 | 51.47735 | -0.56048 | 1022 ft | 140 kts | 91° |
| 2026-05-07 09:59 | 51.47771 | -0.54518 | 827 ft | 135 kts | 91° |
| 2026-05-07 09:59 | 51.47778 | -0.53012 | 694 ft | 135 kts | 94° |
| 2026-05-07 09:59 | 51.47754 | -0.51513 | 514 ft | 135 kts | 94° |
| 2026-05-07 10:00 | 51.47753 | -0.50010 | 307 ft | 134 kts | 91° |
| 2026-05-07 10:00 | 51.47764 | -0.48505 | 128 ft | 134 kts | 93° |
| 2026-05-07 10:00 | 51.47748 | -0.47101 | 87 ft | 114 kts | 91° |
| 2026-05-07 10:00 | 51.47757 | -0.46222 | 89 ft | 41 kts | 88° |
| 2026-05-07 10:01 | 51.47763 | -0.45754 | 84 ft | 45 kts | 90° |
| 2026-05-07 10:01 | 51.47676 | -0.45467 | 86 ft | 23 kts | 182° |
| 2026-05-07 10:01 | 51.47550 | -0.45461 | 86 ft | 16 kts | 165° |
| 2026-05-07 10:01 | 51.47506 | -0.45316 | 90 ft | 15 kts | 92° |
| 2026-05-07 10:02 | 51.47510 | -0.45146 | 87 ft | 15 kts | 89° |
| 2026-05-07 10:02 | 51.47510 | -0.44975 | 91 ft | 15 kts | 90° |
| 2026-05-07 10:02 | 51.47511 | -0.44801 | 87 ft | 16 kts | 90° |
| 2026-05-07 10:02 | 51.47507 | -0.44627 | 90 ft | 16 kts | 105° |
| 2026-05-07 10:03 | 51.47419 | -0.44556 | 86 ft | 15 kts | 180° |
| 2026-05-07 10:03 | 51.47309 | -0.44558 | 86 ft | 16 kts | 181° |
| 2026-05-07 10:03 | 51.47195 | -0.44556 | 86 ft | 17 kts | 179° |
| 2026-05-07 10:03 | 51.47074 | -0.44554 | 86 ft | 18 kts | 181° |
| 2026-05-07 10:04 | 51.47007 | -0.44561 | 88 ft | 3 kts | 211° |
| 2026-05-07 10:04 | 51.47000 | -0.44595 | 86 ft | 5 kts | 258° |
| 2026-05-07 10:04 | 51.46997 | -0.44661 | 86 ft | 2 kts | 269° |
| 2026-05-07 10:04 | 51.46997 | -0.44677 | 86 ft | 0 kts | 269° |